sensor_id;sensor_type;location;lat;lon;timestamp;P1;durP1;ratioP1;P2;durP2;ratioP2
4462;SDS011;2244;50.200;8.220;2023-12-20T00:00:37;16.83;;;1.00;;
4462;SDS011;2244;50.200;8.220;2023-12-20T00:03:04;16.43;;;0.90;;
4462;SDS011;2244;50.200;8.220;2023-12-20T00:05:32;16.60;;;1.00;;
4462;SDS011;2244;50.200;8.220;2023-12-20T00:07:59;16.03;;;0.80;;
4462;SDS011;2244;50.200;8.220;2023-12-20T00:10:27;17.77;;;0.80;;
4462;SDS011;2244;50.200;8.220;2023-12-20T00:12:55;16.27;;;0.80;;
4462;SDS011;2244;50.200;8.220;2023-12-20T00:15:22;17.60;;;0.70;;
4462;SDS011;2244;50.200;8.220;2023-12-20T00:17:50;16.10;;;0.70;;
4462;SDS011;2244;50.200;8.220;2023-12-20T00:20:17;16.30;;;0.80;;
4462;SDS011;2244;50.200;8.220;2023-12-20T00:22:45;17.90;;;1.37;;
4462;SDS011;2244;50.200;8.220;2023-12-20T00:25:12;16.60;;;0.80;;
4462;SDS011;2244;50.200;8.220;2023-12-20T00:27:40;16.30;;;0.80;;
4462;SDS011;2244;50.200;8.220;2023-12-20T00:30:09;16.30;;;0.87;;
4462;SDS011;2244;50.200;8.220;2023-12-20T00:32:36;16.03;;;0.70;;
4462;SDS011;2244;50.200;8.220;2023-12-20T00:35:04;16.27;;;0.77;;
4462;SDS011;2244;50.200;8.220;2023-12-20T00:37:32;16.23;;;0.70;;
4462;SDS011;2244;50.200;8.220;2023-12-20T00:39:59;16.97;;;0.87;;
4462;SDS011;2244;50.200;8.220;2023-12-20T00:42:27;18.83;;;0.93;;
4462;SDS011;2244;50.200;8.220;2023-12-20T00:44:54;16.30;;;0.80;;
4462;SDS011;2244;50.200;8.220;2023-12-20T00:47:22;16.97;;;0.87;;
4462;SDS011;2244;50.200;8.220;2023-12-20T00:49:49;16.57;;;0.90;;
4462;SDS011;2244;50.200;8.220;2023-12-20T00:52:17;16.63;;;1.00;;
4462;SDS011;2244;50.200;8.220;2023-12-20T00:54:45;16.90;;;1.00;;
4462;SDS011;2244;50.200;8.220;2023-12-20T00:57:13;16.40;;;0.93;;
4462;SDS011;2244;50.200;8.220;2023-12-20T00:59:40;16.70;;;0.83;;
4462;SDS011;2244;50.200;8.220;2023-12-20T01:02:08;16.53;;;1.07;;
4462;SDS011;2244;50.200;8.220;2023-12-20T01:04:36;16.20;;;0.80;;
4462;SDS011;2244;50.200;8.220;2023-12-20T01:07:04;16.17;;;0.90;;
4462;SDS011;2244;50.200;8.220;2023-12-20T01:09:31;16.37;;;1.00;;
4462;SDS011;2244;50.200;8.220;2023-12-20T01:11:59;16.30;;;0.87;;
4462;SDS011;2244;50.200;8.220;2023-12-20T01:14:26;16.33;;;0.90;;
4462;SDS011;2244;50.200;8.220;2023-12-20T01:16:54;16.37;;;0.90;;
4462;SDS011;2244;50.200;8.220;2023-12-20T01:19:21;17.43;;;0.90;;
4462;SDS011;2244;50.200;8.220;2023-12-20T01:21:50;17.77;;;1.00;;
4462;SDS011;2244;50.200;8.220;2023-12-20T01:24:18;16.53;;;1.00;;
4462;SDS011;2244;50.200;8.220;2023-12-20T01:26:45;16.50;;;0.97;;
4462;SDS011;2244;50.200;8.220;2023-12-20T01:29:13;16.33;;;0.93;;
4462;SDS011;2244;50.200;8.220;2023-12-20T01:31:41;16.43;;;0.90;;
4462;SDS011;2244;50.200;8.220;2023-12-20T01:34:08;16.90;;;1.07;;
4462;SDS011;2244;50.200;8.220;2023-12-20T01:36:36;16.37;;;0.90;;
4462;SDS011;2244;50.200;8.220;2023-12-20T01:39:03;16.47;;;1.03;;
4462;SDS011;2244;50.200;8.220;2023-12-20T01:41:32;16.63;;;1.20;;
4462;SDS011;2244;50.200;8.220;2023-12-20T01:44:00;16.40;;;1.00;;
4462;SDS011;2244;50.200;8.220;2023-12-20T01:46:27;17.30;;;1.37;;
4462;SDS011;2244;50.200;8.220;2023-12-20T01:48:55;16.70;;;1.20;;
4462;SDS011;2244;50.200;8.220;2023-12-20T01:51:22;16.47;;;1.10;;
4462;SDS011;2244;50.200;8.220;2023-12-20T01:53:50;16.67;;;1.23;;
4462;SDS011;2244;50.200;8.220;2023-12-20T01:56:17;16.50;;;1.20;;
4462;SDS011;2244;50.200;8.220;2023-12-20T01:58:45;16.67;;;1.30;;
4462;SDS011;2244;50.200;8.220;2023-12-20T02:01:13;21.20;;;1.53;;
4462;SDS011;2244;50.200;8.220;2023-12-20T02:03:41;16.73;;;1.30;;
4462;SDS011;2244;50.200;8.220;2023-12-20T02:06:09;18.30;;;1.47;;
4462;SDS011;2244;50.200;8.220;2023-12-20T02:08:37;16.63;;;1.20;;
4462;SDS011;2244;50.200;8.220;2023-12-20T02:11:04;16.60;;;1.10;;
4462;SDS011;2244;50.200;8.220;2023-12-20T02:13:32;16.87;;;1.50;;
4462;SDS011;2244;50.200;8.220;2023-12-20T02:15:59;17.60;;;1.40;;
4462;SDS011;2244;50.200;8.220;2023-12-20T02:18:27;17.27;;;1.60;;
4462;SDS011;2244;50.200;8.220;2023-12-20T02:20:55;17.73;;;1.57;;
4462;SDS011;2244;50.200;8.220;2023-12-20T02:23:23;17.90;;;1.70;;
4462;SDS011;2244;50.200;8.220;2023-12-20T02:28:20;16.80;;;1.40;;
4462;SDS011;2244;50.200;8.220;2023-12-20T02:30:49;16.60;;;1.37;;
4462;SDS011;2244;50.200;8.220;2023-12-20T02:33:17;16.73;;;1.30;;
4462;SDS011;2244;50.200;8.220;2023-12-20T02:35:44;19.30;;;1.63;;
4462;SDS011;2244;50.200;8.220;2023-12-20T02:38:12;17.27;;;1.80;;
4462;SDS011;2244;50.200;8.220;2023-12-20T02:40:39;16.57;;;1.37;;
4462;SDS011;2244;50.200;8.220;2023-12-20T02:43:08;17.23;;;1.80;;
4462;SDS011;2244;50.200;8.220;2023-12-20T02:45:36;16.83;;;1.43;;
4462;SDS011;2244;50.200;8.220;2023-12-20T02:48:03;17.10;;;1.40;;
4462;SDS011;2244;50.200;8.220;2023-12-20T02:50:31;17.00;;;1.57;;
4462;SDS011;2244;50.200;8.220;2023-12-20T02:52:58;17.37;;;1.70;;
4462;SDS011;2244;50.200;8.220;2023-12-20T02:55:26;18.40;;;1.80;;
4462;SDS011;2244;50.200;8.220;2023-12-20T02:57:53;17.00;;;1.60;;
4462;SDS011;2244;50.200;8.220;2023-12-20T03:00:21;16.67;;;1.30;;
4462;SDS011;2244;50.200;8.220;2023-12-20T03:02:48;17.93;;;1.70;;
4462;SDS011;2244;50.200;8.220;2023-12-20T03:05:16;16.70;;;1.40;;
4462;SDS011;2244;50.200;8.220;2023-12-20T03:07:44;17.17;;;1.40;;
4462;SDS011;2244;50.200;8.220;2023-12-20T03:10:12;19.93;;;1.70;;
4462;SDS011;2244;50.200;8.220;2023-12-20T03:12:41;18.90;;;1.73;;
4462;SDS011;2244;50.200;8.220;2023-12-20T03:15:09;17.70;;;1.77;;
4462;SDS011;2244;50.200;8.220;2023-12-20T03:17:37;17.37;;;1.30;;
4462;SDS011;2244;50.200;8.220;2023-12-20T03:20:05;17.30;;;1.60;;
4462;SDS011;2244;50.200;8.220;2023-12-20T03:22:33;16.97;;;1.57;;
4462;SDS011;2244;50.200;8.220;2023-12-20T03:25:01;17.23;;;1.67;;
4462;SDS011;2244;50.200;8.220;2023-12-20T03:27:29;17.63;;;1.80;;
4462;SDS011;2244;50.200;8.220;2023-12-20T03:29:57;17.17;;;1.70;;
4462;SDS011;2244;50.200;8.220;2023-12-20T03:32:24;16.83;;;1.60;;
4462;SDS011;2244;50.200;8.220;2023-12-20T03:34:52;16.87;;;1.50;;
4462;SDS011;2244;50.200;8.220;2023-12-20T03:37:21;17.53;;;1.97;;
4462;SDS011;2244;50.200;8.220;2023-12-20T03:39:48;17.13;;;1.70;;
4462;SDS011;2244;50.200;8.220;2023-12-20T03:42:16;17.50;;;1.77;;
4462;SDS011;2244;50.200;8.220;2023-12-20T03:44:43;17.20;;;1.83;;
4462;SDS011;2244;50.200;8.220;2023-12-20T03:47:11;17.37;;;1.83;;
4462;SDS011;2244;50.200;8.220;2023-12-20T03:49:38;17.17;;;1.80;;
4462;SDS011;2244;50.200;8.220;2023-12-20T03:52:06;17.00;;;1.73;;
4462;SDS011;2244;50.200;8.220;2023-12-20T03:54:34;17.27;;;1.60;;
4462;SDS011;2244;50.200;8.220;2023-12-20T03:57:02;17.30;;;1.93;;
4462;SDS011;2244;50.200;8.220;2023-12-20T03:59:29;17.10;;;1.80;;
4462;SDS011;2244;50.200;8.220;2023-12-20T04:01:57;17.73;;;1.70;;
4462;SDS011;2244;50.200;8.220;2023-12-20T04:04:24;17.53;;;2.20;;
4462;SDS011;2244;50.200;8.220;2023-12-20T04:06:52;19.40;;;2.67;;
4462;SDS011;2244;50.200;8.220;2023-12-20T04:09:20;18.13;;;2.57;;
4462;SDS011;2244;50.200;8.220;2023-12-20T04:11:47;17.90;;;2.80;;
4462;SDS011;2244;50.200;8.220;2023-12-20T04:14:15;19.63;;;3.20;;
4462;SDS011;2244;50.200;8.220;2023-12-20T04:16:42;20.23;;;3.90;;
4462;SDS011;2244;50.200;8.220;2023-12-20T04:19:11;25.37;;;4.20;;
4462;SDS011;2244;50.200;8.220;2023-12-20T04:21:39;21.17;;;4.30;;
4462;SDS011;2244;50.200;8.220;2023-12-20T04:24:06;20.17;;;4.30;;
4462;SDS011;2244;50.200;8.220;2023-12-20T04:26:34;23.37;;;5.20;;
4462;SDS011;2244;50.200;8.220;2023-12-20T04:29:02;23.20;;;5.10;;
4462;SDS011;2244;50.200;8.220;2023-12-20T04:31:30;22.83;;;5.23;;
4462;SDS011;2244;50.200;8.220;2023-12-20T04:33:57;22.50;;;4.67;;
4462;SDS011;2244;50.200;8.220;2023-12-20T04:36:25;23.50;;;4.17;;
4462;SDS011;2244;50.200;8.220;2023-12-20T04:38:53;23.73;;;4.30;;
4462;SDS011;2244;50.200;8.220;2023-12-20T04:41:20;25.93;;;4.83;;
4462;SDS011;2244;50.200;8.220;2023-12-20T04:43:49;23.23;;;3.63;;
4462;SDS011;2244;50.200;8.220;2023-12-20T04:46:16;20.63;;;3.57;;
4462;SDS011;2244;50.200;8.220;2023-12-20T04:48:44;24.13;;;3.70;;
4462;SDS011;2244;50.200;8.220;2023-12-20T04:51:11;26.00;;;3.90;;
4462;SDS011;2244;50.200;8.220;2023-12-20T04:53:39;23.27;;;3.57;;
4462;SDS011;2244;50.200;8.220;2023-12-20T04:56:06;24.33;;;3.27;;
4462;SDS011;2244;50.200;8.220;2023-12-20T04:58:34;22.50;;;4.07;;
4462;SDS011;2244;50.200;8.220;2023-12-20T05:01:01;26.57;;;3.27;;
4462;SDS011;2244;50.200;8.220;2023-12-20T05:03:29;23.50;;;3.20;;
4462;SDS011;2244;50.200;8.220;2023-12-20T05:05:56;22.50;;;3.13;;
4462;SDS011;2244;50.200;8.220;2023-12-20T05:08:24;23.53;;;2.80;;
4462;SDS011;2244;50.200;8.220;2023-12-20T05:10:57;20.57;;;2.67;;
4462;SDS011;2244;50.200;8.220;2023-12-20T05:13:21;21.97;;;2.80;;
4462;SDS011;2244;50.200;8.220;2023-12-20T05:15:50;29.93;;;2.83;;
4462;SDS011;2244;50.200;8.220;2023-12-20T05:18:17;23.20;;;2.90;;
4462;SDS011;2244;50.200;8.220;2023-12-20T05:20:45;20.77;;;2.30;;
4462;SDS011;2244;50.200;8.220;2023-12-20T05:23:12;21.30;;;2.07;;
4462;SDS011;2244;50.200;8.220;2023-12-20T05:25:40;22.50;;;2.30;;
4462;SDS011;2244;50.200;8.220;2023-12-20T05:28:07;25.20;;;3.03;;
4462;SDS011;2244;50.200;8.220;2023-12-20T05:30:35;24.50;;;2.30;;
4462;SDS011;2244;50.200;8.220;2023-12-20T05:33:02;23.73;;;2.23;;
4462;SDS011;2244;50.200;8.220;2023-12-20T05:35:30;25.73;;;2.10;;
4462;SDS011;2244;50.200;8.220;2023-12-20T05:37:58;28.60;;;2.40;;
4462;SDS011;2244;50.200;8.220;2023-12-20T05:40:25;23.80;;;2.27;;
4462;SDS011;2244;50.200;8.220;2023-12-20T05:42:53;22.53;;;2.00;;
4462;SDS011;2244;50.200;8.220;2023-12-20T05:45:20;25.57;;;2.10;;
4462;SDS011;2244;50.200;8.220;2023-12-20T05:47:48;25.00;;;2.00;;
4462;SDS011;2244;50.200;8.220;2023-12-20T05:50:15;27.80;;;2.30;;
4462;SDS011;2244;50.200;8.220;2023-12-20T05:52:42;28.30;;;3.07;;
4462;SDS011;2244;50.200;8.220;2023-12-20T05:55:10;20.70;;;2.30;;
4462;SDS011;2244;50.200;8.220;2023-12-20T05:57:37;26.67;;;2.40;;
4462;SDS011;2244;50.200;8.220;2023-12-20T06:00:05;21.20;;;2.03;;
4462;SDS011;2244;50.200;8.220;2023-12-20T06:02:32;23.70;;;2.20;;
4462;SDS011;2244;50.200;8.220;2023-12-20T06:05:00;26.90;;;3.27;;
4462;SDS011;2244;50.200;8.220;2023-12-20T06:07:28;25.20;;;2.63;;
4462;SDS011;2244;50.200;8.220;2023-12-20T06:09:56;22.77;;;2.50;;
4462;SDS011;2244;50.200;8.220;2023-12-20T06:12:23;19.40;;;2.00;;
4462;SDS011;2244;50.200;8.220;2023-12-20T06:14:53;19.77;;;1.93;;
4462;SDS011;2244;50.200;8.220;2023-12-20T06:17:20;23.17;;;2.57;;
4462;SDS011;2244;50.200;8.220;2023-12-20T06:19:48;22.60;;;2.33;;
4462;SDS011;2244;50.200;8.220;2023-12-20T06:22:18;22.63;;;2.50;;
4462;SDS011;2244;50.200;8.220;2023-12-20T06:24:46;23.33;;;2.27;;
4462;SDS011;2244;50.200;8.220;2023-12-20T06:27:13;27.70;;;2.80;;
4462;SDS011;2244;50.200;8.220;2023-12-20T06:29:47;23.80;;;2.50;;
4462;SDS011;2244;50.200;8.220;2023-12-20T06:32:19;26.90;;;2.60;;
4462;SDS011;2244;50.200;8.220;2023-12-20T06:34:47;20.63;;;2.40;;
4462;SDS011;2244;50.200;8.220;2023-12-20T06:37:14;27.87;;;2.83;;
4462;SDS011;2244;50.200;8.220;2023-12-20T06:39:42;21.70;;;3.03;;
4462;SDS011;2244;50.200;8.220;2023-12-20T06:42:09;20.17;;;2.10;;
4462;SDS011;2244;50.200;8.220;2023-12-20T06:44:37;23.93;;;2.97;;
4462;SDS011;2244;50.200;8.220;2023-12-20T06:47:05;22.07;;;2.87;;
4462;SDS011;2244;50.200;8.220;2023-12-20T06:49:33;20.80;;;2.90;;
4462;SDS011;2244;50.200;8.220;2023-12-20T06:52:00;21.70;;;3.00;;
4462;SDS011;2244;50.200;8.220;2023-12-20T06:54:29;24.27;;;2.90;;
4462;SDS011;2244;50.200;8.220;2023-12-20T06:56:56;24.47;;;3.60;;
4462;SDS011;2244;50.200;8.220;2023-12-20T06:59:23;24.43;;;3.20;;
4462;SDS011;2244;50.200;8.220;2023-12-20T07:01:51;26.57;;;3.47;;
4462;SDS011;2244;50.200;8.220;2023-12-20T07:04:19;24.30;;;3.00;;
4462;SDS011;2244;50.200;8.220;2023-12-20T07:06:48;22.27;;;3.80;;
4462;SDS011;2244;50.200;8.220;2023-12-20T07:09:17;23.83;;;3.20;;
4462;SDS011;2244;50.200;8.220;2023-12-20T07:11:45;26.53;;;3.50;;
4462;SDS011;2244;50.200;8.220;2023-12-20T07:14:12;20.63;;;2.77;;
4462;SDS011;2244;50.200;8.220;2023-12-20T07:16:40;25.90;;;3.17;;
4462;SDS011;2244;50.200;8.220;2023-12-20T07:19:07;20.60;;;2.07;;
4462;SDS011;2244;50.200;8.220;2023-12-20T07:21:35;19.90;;;2.87;;
4462;SDS011;2244;50.200;8.220;2023-12-20T07:24:02;24.10;;;2.83;;
4462;SDS011;2244;50.200;8.220;2023-12-20T07:26:30;20.20;;;2.60;;
4462;SDS011;2244;50.200;8.220;2023-12-20T07:28:57;22.60;;;2.60;;
4462;SDS011;2244;50.200;8.220;2023-12-20T07:31:25;24.33;;;2.60;;
4462;SDS011;2244;50.200;8.220;2023-12-20T07:33:52;23.80;;;2.17;;
4462;SDS011;2244;50.200;8.220;2023-12-20T07:36:20;25.37;;;2.40;;
4462;SDS011;2244;50.200;8.220;2023-12-20T07:38:48;22.57;;;2.43;;
4462;SDS011;2244;50.200;8.220;2023-12-20T07:41:16;23.77;;;2.60;;
4462;SDS011;2244;50.200;8.220;2023-12-20T07:43:43;23.60;;;2.30;;
4462;SDS011;2244;50.200;8.220;2023-12-20T07:46:11;29.97;;;3.00;;
4462;SDS011;2244;50.200;8.220;2023-12-20T07:48:39;25.90;;;2.60;;
4462;SDS011;2244;50.200;8.220;2023-12-20T07:51:09;23.57;;;2.30;;
4462;SDS011;2244;50.200;8.220;2023-12-20T07:53:36;25.57;;;2.40;;
4462;SDS011;2244;50.200;8.220;2023-12-20T07:56:14;25.50;;;3.10;;
4462;SDS011;2244;50.200;8.220;2023-12-20T07:58:42;24.97;;;2.70;;
4462;SDS011;2244;50.200;8.220;2023-12-20T08:01:11;24.63;;;2.17;;
4462;SDS011;2244;50.200;8.220;2023-12-20T08:03:39;24.27;;;2.50;;
4462;SDS011;2244;50.200;8.220;2023-12-20T08:06:06;23.23;;;2.43;;
4462;SDS011;2244;50.200;8.220;2023-12-20T08:08:34;21.70;;;2.37;;
4462;SDS011;2244;50.200;8.220;2023-12-20T08:11:01;28.93;;;3.03;;
4462;SDS011;2244;50.200;8.220;2023-12-20T08:13:29;21.10;;;2.07;;
4462;SDS011;2244;50.200;8.220;2023-12-20T08:15:56;21.43;;;2.40;;
4462;SDS011;2244;50.200;8.220;2023-12-20T08:18:24;25.10;;;2.87;;
4462;SDS011;2244;50.200;8.220;2023-12-20T08:20:51;25.40;;;2.40;;
4462;SDS011;2244;50.200;8.220;2023-12-20T08:23:20;21.60;;;2.07;;
4462;SDS011;2244;50.200;8.220;2023-12-20T08:25:49;26.60;;;2.67;;
4462;SDS011;2244;50.200;8.220;2023-12-20T08:28:18;25.87;;;3.07;;
4462;SDS011;2244;50.200;8.220;2023-12-20T08:30:45;25.27;;;3.00;;
4462;SDS011;2244;50.200;8.220;2023-12-20T08:33:13;23.73;;;2.40;;
4462;SDS011;2244;50.200;8.220;2023-12-20T08:35:40;23.53;;;2.30;;
4462;SDS011;2244;50.200;8.220;2023-12-20T08:38:08;21.47;;;2.13;;
4462;SDS011;2244;50.200;8.220;2023-12-20T08:40:36;25.23;;;2.43;;
4462;SDS011;2244;50.200;8.220;2023-12-20T08:43:04;25.50;;;2.63;;
4462;SDS011;2244;50.200;8.220;2023-12-20T08:45:32;22.03;;;2.53;;
4462;SDS011;2244;50.200;8.220;2023-12-20T08:47:59;21.60;;;2.50;;
4462;SDS011;2244;50.200;8.220;2023-12-20T08:50:28;24.93;;;2.90;;
4462;SDS011;2244;50.200;8.220;2023-12-20T08:52:56;25.63;;;2.97;;
4462;SDS011;2244;50.200;8.220;2023-12-20T08:55:24;23.77;;;2.63;;
4462;SDS011;2244;50.200;8.220;2023-12-20T08:57:54;23.07;;;2.50;;
4462;SDS011;2244;50.200;8.220;2023-12-20T09:00:21;30.13;;;2.70;;
4462;SDS011;2244;50.200;8.220;2023-12-20T09:02:51;28.93;;;2.83;;
4462;SDS011;2244;50.200;8.220;2023-12-20T09:05:18;26.43;;;2.50;;
4462;SDS011;2244;50.200;8.220;2023-12-20T09:07:46;22.80;;;2.70;;
4462;SDS011;2244;50.200;8.220;2023-12-20T09:10:14;23.73;;;2.90;;
4462;SDS011;2244;50.200;8.220;2023-12-20T09:12:43;28.70;;;2.80;;
4462;SDS011;2244;50.200;8.220;2023-12-20T09:15:11;24.17;;;3.00;;
4462;SDS011;2244;50.200;8.220;2023-12-20T09:17:38;23.57;;;2.90;;
4462;SDS011;2244;50.200;8.220;2023-12-20T09:20:08;23.03;;;2.93;;
4462;SDS011;2244;50.200;8.220;2023-12-20T09:22:37;23.50;;;2.73;;
4462;SDS011;2244;50.200;8.220;2023-12-20T09:25:06;25.90;;;3.33;;
4462;SDS011;2244;50.200;8.220;2023-12-20T09:27:33;25.00;;;3.37;;
4462;SDS011;2244;50.200;8.220;2023-12-20T09:30:01;23.93;;;2.90;;
4462;SDS011;2244;50.200;8.220;2023-12-20T09:32:28;25.07;;;3.07;;
4462;SDS011;2244;50.200;8.220;2023-12-20T09:34:56;29.07;;;3.10;;
4462;SDS011;2244;50.200;8.220;2023-12-20T09:37:27;24.10;;;3.30;;
4462;SDS011;2244;50.200;8.220;2023-12-20T09:39:55;28.53;;;3.43;;
4462;SDS011;2244;50.200;8.220;2023-12-20T09:42:28;24.67;;;3.07;;
4462;SDS011;2244;50.200;8.220;2023-12-20T09:44:52;23.40;;;2.70;;
4462;SDS011;2244;50.200;8.220;2023-12-20T09:47:19;22.07;;;3.00;;
4462;SDS011;2244;50.200;8.220;2023-12-20T09:49:47;24.60;;;2.80;;
4462;SDS011;2244;50.200;8.220;2023-12-20T09:52:15;28.23;;;3.40;;
4462;SDS011;2244;50.200;8.220;2023-12-20T09:54:43;32.00;;;3.30;;
4462;SDS011;2244;50.200;8.220;2023-12-20T09:57:11;27.73;;;3.30;;
4462;SDS011;2244;50.200;8.220;2023-12-20T09:59:39;23.40;;;2.80;;
4462;SDS011;2244;50.200;8.220;2023-12-20T10:02:08;22.90;;;3.30;;
4462;SDS011;2244;50.200;8.220;2023-12-20T10:04:36;24.30;;;3.10;;
4462;SDS011;2244;50.200;8.220;2023-12-20T10:07:04;25.93;;;3.50;;
4462;SDS011;2244;50.200;8.220;2023-12-20T10:09:33;25.97;;;3.07;;
4462;SDS011;2244;50.200;8.220;2023-12-20T10:12:01;29.80;;;3.10;;
4462;SDS011;2244;50.200;8.220;2023-12-20T10:14:28;23.73;;;2.43;;
4462;SDS011;2244;50.200;8.220;2023-12-20T10:17:01;22.37;;;3.03;;
4462;SDS011;2244;50.200;8.220;2023-12-20T10:19:25;23.03;;;3.10;;
4462;SDS011;2244;50.200;8.220;2023-12-20T10:21:52;28.40;;;3.47;;
4462;SDS011;2244;50.200;8.220;2023-12-20T10:24:20;20.00;;;2.50;;
4462;SDS011;2244;50.200;8.220;2023-12-20T10:26:49;32.43;;;3.30;;
4462;SDS011;2244;50.200;8.220;2023-12-20T10:29:18;26.47;;;3.93;;
4462;SDS011;2244;50.200;8.220;2023-12-20T10:31:46;29.03;;;3.23;;
4462;SDS011;2244;50.200;8.220;2023-12-20T10:34:13;21.37;;;2.63;;
4462;SDS011;2244;50.200;8.220;2023-12-20T10:36:41;26.00;;;3.27;;
4462;SDS011;2244;50.200;8.220;2023-12-20T10:39:08;28.10;;;3.10;;
4462;SDS011;2244;50.200;8.220;2023-12-20T10:41:37;26.13;;;3.50;;
4462;SDS011;2244;50.200;8.220;2023-12-20T10:44:09;26.57;;;3.50;;
4462;SDS011;2244;50.200;8.220;2023-12-20T10:46:36;26.10;;;3.27;;
4462;SDS011;2244;50.200;8.220;2023-12-20T10:49:04;22.50;;;2.50;;
4462;SDS011;2244;50.200;8.220;2023-12-20T10:51:32;20.03;;;2.90;;
4462;SDS011;2244;50.200;8.220;2023-12-20T10:54:01;25.73;;;3.43;;
4462;SDS011;2244;50.200;8.220;2023-12-20T10:58:58;26.47;;;3.43;;
4462;SDS011;2244;50.200;8.220;2023-12-20T11:01:31;24.70;;;3.20;;
4462;SDS011;2244;50.200;8.220;2023-12-20T11:04:08;24.10;;;3.03;;
4462;SDS011;2244;50.200;8.220;2023-12-20T11:06:51;23.23;;;2.90;;
4462;SDS011;2244;50.200;8.220;2023-12-20T11:09:33;26.20;;;3.03;;
4462;SDS011;2244;50.200;8.220;2023-12-20T11:12:06;24.90;;;3.27;;
4462;SDS011;2244;50.200;8.220;2023-12-20T11:14:38;24.50;;;3.00;;
4462;SDS011;2244;50.200;8.220;2023-12-20T11:17:09;31.00;;;3.30;;
4462;SDS011;2244;50.200;8.220;2023-12-20T11:19:36;21.83;;;2.73;;
4462;SDS011;2244;50.200;8.220;2023-12-20T11:22:04;24.90;;;2.70;;
4462;SDS011;2244;50.200;8.220;2023-12-20T11:24:32;25.07;;;3.50;;
4462;SDS011;2244;50.200;8.220;2023-12-20T11:27:01;25.13;;;3.53;;
4462;SDS011;2244;50.200;8.220;2023-12-20T11:29:29;24.47;;;2.83;;
4462;SDS011;2244;50.200;8.220;2023-12-20T11:32:00;23.40;;;3.10;;
4462;SDS011;2244;50.200;8.220;2023-12-20T11:34:32;24.97;;;3.30;;
4462;SDS011;2244;50.200;8.220;2023-12-20T11:36:57;23.47;;;2.63;;
4462;SDS011;2244;50.200;8.220;2023-12-20T11:39:26;26.40;;;2.83;;
4462;SDS011;2244;50.200;8.220;2023-12-20T11:41:55;24.60;;;2.97;;
4462;SDS011;2244;50.200;8.220;2023-12-20T11:44:25;26.20;;;3.07;;
4462;SDS011;2244;50.200;8.220;2023-12-20T11:46:54;26.90;;;2.60;;
4462;SDS011;2244;50.200;8.220;2023-12-20T11:49:24;24.03;;;3.33;;
4462;SDS011;2244;50.200;8.220;2023-12-20T11:51:52;27.80;;;3.13;;
4462;SDS011;2244;50.200;8.220;2023-12-20T11:54:20;22.60;;;2.60;;
4462;SDS011;2244;50.200;8.220;2023-12-20T11:56:47;21.23;;;2.30;;
4462;SDS011;2244;50.200;8.220;2023-12-20T11:59:15;23.67;;;2.87;;
4462;SDS011;2244;50.200;8.220;2023-12-20T12:01:48;23.47;;;2.80;;
4462;SDS011;2244;50.200;8.220;2023-12-20T12:04:16;21.80;;;2.40;;
4462;SDS011;2244;50.200;8.220;2023-12-20T12:06:44;27.30;;;3.83;;
4462;SDS011;2244;50.200;8.220;2023-12-20T12:09:13;23.87;;;2.60;;
4462;SDS011;2244;50.200;8.220;2023-12-20T12:11:42;20.83;;;2.23;;
4462;SDS011;2244;50.200;8.220;2023-12-20T12:14:10;25.00;;;3.20;;
4462;SDS011;2244;50.200;8.220;2023-12-20T12:16:38;26.73;;;2.50;;
4462;SDS011;2244;50.200;8.220;2023-12-20T12:19:05;22.67;;;2.33;;
4462;SDS011;2244;50.200;8.220;2023-12-20T12:21:33;24.10;;;2.50;;
4462;SDS011;2244;50.200;8.220;2023-12-20T12:24:07;25.60;;;2.90;;
4462;SDS011;2244;50.200;8.220;2023-12-20T12:26:34;23.73;;;2.37;;
4462;SDS011;2244;50.200;8.220;2023-12-20T12:29:02;23.13;;;2.23;;
4462;SDS011;2244;50.200;8.220;2023-12-20T12:31:30;22.40;;;2.27;;
4462;SDS011;2244;50.200;8.220;2023-12-20T12:33:57;22.90;;;2.70;;
4462;SDS011;2244;50.200;8.220;2023-12-20T12:36:25;27.57;;;2.77;;
4462;SDS011;2244;50.200;8.220;2023-12-20T12:38:52;22.90;;;2.60;;
4462;SDS011;2244;50.200;8.220;2023-12-20T12:41:20;22.07;;;2.50;;
4462;SDS011;2244;50.200;8.220;2023-12-20T12:43:47;22.30;;;2.40;;
4462;SDS011;2244;50.200;8.220;2023-12-20T12:46:15;24.57;;;3.07;;
4462;SDS011;2244;50.200;8.220;2023-12-20T12:48:43;23.13;;;2.67;;
4462;SDS011;2244;50.200;8.220;2023-12-20T12:51:13;21.80;;;2.80;;
4462;SDS011;2244;50.200;8.220;2023-12-20T12:53:40;25.87;;;3.13;;
4462;SDS011;2244;50.200;8.220;2023-12-20T12:56:09;22.73;;;3.00;;
4462;SDS011;2244;50.200;8.220;2023-12-20T12:58:36;24.20;;;2.97;;
4462;SDS011;2244;50.200;8.220;2023-12-20T13:01:04;25.83;;;3.00;;
4462;SDS011;2244;50.200;8.220;2023-12-20T13:03:31;26.43;;;3.10;;
4462;SDS011;2244;50.200;8.220;2023-12-20T13:06:00;24.97;;;2.90;;
4462;SDS011;2244;50.200;8.220;2023-12-20T13:08:28;21.20;;;2.53;;
4462;SDS011;2244;50.200;8.220;2023-12-20T13:10:56;22.50;;;3.07;;
4462;SDS011;2244;50.200;8.220;2023-12-20T13:13:25;22.80;;;2.90;;
4462;SDS011;2244;50.200;8.220;2023-12-20T13:15:53;23.77;;;2.77;;
4462;SDS011;2244;50.200;8.220;2023-12-20T13:18:22;24.00;;;3.00;;
4462;SDS011;2244;50.200;8.220;2023-12-20T13:20:49;23.20;;;3.30;;
4462;SDS011;2244;50.200;8.220;2023-12-20T13:23:18;23.67;;;2.83;;
4462;SDS011;2244;50.200;8.220;2023-12-20T13:25:45;27.20;;;3.47;;
4462;SDS011;2244;50.200;8.220;2023-12-20T13:28:13;23.20;;;3.50;;
4462;SDS011;2244;50.200;8.220;2023-12-20T13:30:41;23.97;;;2.90;;
4462;SDS011;2244;50.200;8.220;2023-12-20T13:33:09;23.57;;;3.10;;
4462;SDS011;2244;50.200;8.220;2023-12-20T13:35:36;23.77;;;3.30;;
4462;SDS011;2244;50.200;8.220;2023-12-20T13:38:04;25.30;;;3.17;;
4462;SDS011;2244;50.200;8.220;2023-12-20T13:40:32;27.07;;;3.23;;
4462;SDS011;2244;50.200;8.220;2023-12-20T13:43:00;27.60;;;3.17;;
4462;SDS011;2244;50.200;8.220;2023-12-20T13:45:27;24.90;;;3.20;;
4462;SDS011;2244;50.200;8.220;2023-12-20T13:47:55;24.20;;;3.33;;
4462;SDS011;2244;50.200;8.220;2023-12-20T13:50:22;24.73;;;3.60;;
4462;SDS011;2244;50.200;8.220;2023-12-20T13:52:50;22.50;;;3.10;;
4462;SDS011;2244;50.200;8.220;2023-12-20T13:55:17;26.10;;;3.10;;
4462;SDS011;2244;50.200;8.220;2023-12-20T13:57:46;24.50;;;2.90;;
4462;SDS011;2244;50.200;8.220;2023-12-20T14:00:16;26.10;;;3.03;;
4462;SDS011;2244;50.200;8.220;2023-12-20T14:02:44;22.93;;;3.00;;
4462;SDS011;2244;50.200;8.220;2023-12-20T14:05:12;26.67;;;3.23;;
4462;SDS011;2244;50.200;8.220;2023-12-20T14:07:41;22.90;;;2.63;;
4462;SDS011;2244;50.200;8.220;2023-12-20T14:10:12;24.20;;;3.30;;
4462;SDS011;2244;50.200;8.220;2023-12-20T14:12:40;23.37;;;2.90;;
4462;SDS011;2244;50.200;8.220;2023-12-20T14:15:07;25.00;;;2.40;;
4462;SDS011;2244;50.200;8.220;2023-12-20T14:17:37;23.03;;;2.90;;
4462;SDS011;2244;50.200;8.220;2023-12-20T14:20:06;29.70;;;3.10;;
4462;SDS011;2244;50.200;8.220;2023-12-20T14:22:34;25.80;;;3.43;;
4462;SDS011;2244;50.200;8.220;2023-12-20T14:25:02;27.73;;;2.40;;
4462;SDS011;2244;50.200;8.220;2023-12-20T14:27:30;22.33;;;2.23;;
4462;SDS011;2244;50.200;8.220;2023-12-20T14:29:57;20.47;;;2.30;;
4462;SDS011;2244;50.200;8.220;2023-12-20T14:32:25;25.33;;;2.20;;
4462;SDS011;2244;50.200;8.220;2023-12-20T14:34:54;21.60;;;2.20;;
4462;SDS011;2244;50.200;8.220;2023-12-20T14:37:22;22.60;;;2.30;;
4462;SDS011;2244;50.200;8.220;2023-12-20T14:39:49;20.77;;;2.00;;
4462;SDS011;2244;50.200;8.220;2023-12-20T14:42:17;21.60;;;2.13;;
4462;SDS011;2244;50.200;8.220;2023-12-20T14:44:44;22.67;;;2.13;;
4462;SDS011;2244;50.200;8.220;2023-12-20T14:47:12;22.07;;;2.60;;
4462;SDS011;2244;50.200;8.220;2023-12-20T14:49:41;21.30;;;2.50;;
4462;SDS011;2244;50.200;8.220;2023-12-20T14:52:09;25.00;;;2.33;;
4462;SDS011;2244;50.200;8.220;2023-12-20T14:54:37;21.53;;;2.00;;
4462;SDS011;2244;50.200;8.220;2023-12-20T14:57:05;21.57;;;2.10;;
4462;SDS011;2244;50.200;8.220;2023-12-20T14:59:34;21.63;;;2.00;;
4462;SDS011;2244;50.200;8.220;2023-12-20T15:02:01;22.97;;;2.40;;
4462;SDS011;2244;50.200;8.220;2023-12-20T15:04:31;21.47;;;2.00;;
4462;SDS011;2244;50.200;8.220;2023-12-20T15:06:58;23.53;;;2.63;;
4462;SDS011;2244;50.200;8.220;2023-12-20T15:09:27;19.90;;;1.87;;